logo
Search for airport 
image banner adimage banner adimage banner ad
image banner ad

HTNN - Ngorongoro

Located in , Tanzania, United Republic of

ICAO - , IATA -

Data provided by Airmate  

General information

Coordinates: S3°13'17" E35°28'37"
Elevation is 7770 feet MSL.
 
View others Airports in Manyara

Operational data

Special qualification required
Current time UTC:
Current local time:
Weather at : - ( 0 km )
METAR: ZMUB 131900Z 35005MPS 290V050 6000 -SN BKN030 M04/M07 Q0999 NOSIG RMK QFE643.7 73 NT
View NOTAMs / SUP AIP / TFR affecting this airport [VIEW]
Communications frequencies: [VIEW]

Runways:

RWY identifierQFULength (ft)Width (ft)SurfaceLDA (ft)
1000UNK
2800UNK

Airport contact information

Address: Tanzania, United Republic of

Satellite view of HTNN